createdAt,value
2023-02-20T00:01:36.259Z,100.00
2023-02-20T00:04:05.528Z,100.00
2023-02-20T00:06:35.851Z,100.00
2023-02-20T00:09:04.892Z,100.00
2023-02-20T00:11:33.862Z,100.00
2023-02-20T00:14:02.840Z,100.00
2023-02-20T00:16:31.884Z,100.00
2023-02-20T00:19:00.914Z,100.00
2023-02-20T00:21:29.997Z,100.00
2023-02-20T00:24:00.377Z,100.00
2023-02-20T00:26:29.310Z,100.00
2023-02-20T00:28:58.265Z,100.00
2023-02-20T00:31:27.404Z,100.00
2023-02-20T00:33:57.297Z,100.00
2023-02-20T00:36:26.490Z,100.00
2023-02-20T00:38:55.643Z,100.00
2023-02-20T00:41:27.531Z,100.00
2023-02-20T00:43:56.611Z,100.00
2023-02-20T00:46:25.695Z,100.00
2023-02-20T00:48:55.002Z,100.00
2023-02-20T00:51:56.270Z,100.00
2023-02-20T00:54:25.405Z,100.00
2023-02-20T00:56:55.901Z,100.00
2023-02-20T00:59:26.848Z,100.00
2023-02-20T01:01:56.020Z,100.00
2023-02-20T01:04:25.381Z,100.00
2023-02-20T01:06:54.310Z,100.00
2023-02-20T01:09:23.464Z,100.00
2023-02-20T01:11:52.542Z,100.00
2023-02-20T01:14:24.200Z,100.00
2023-02-20T01:16:55.332Z,100.00
2023-02-20T01:19:25.877Z,100.00
2023-02-20T01:21:55.661Z,100.00
2023-02-20T01:24:24.691Z,100.00
2023-02-20T01:26:53.793Z,100.00
2023-02-20T01:29:24.191Z,100.00
2023-02-20T01:31:54.482Z,100.00
2023-02-20T01:34:24.125Z,100.00
2023-02-20T01:36:55.201Z,100.00
2023-02-20T01:39:27.687Z,100.00
2023-02-20T01:41:59.383Z,100.00
2023-02-20T01:44:33.610Z,100.00
2023-02-20T01:47:03.470Z,100.00
2023-02-20T01:49:38.352Z,100.00
2023-02-20T01:52:15.641Z,100.00
2023-02-20T01:54:47.069Z,100.00
2023-02-20T01:57:20.872Z,100.00
2023-02-20T01:59:53.796Z,100.00
2023-02-20T02:02:23.485Z,100.00
2023-02-20T02:04:53.420Z,100.00
2023-02-20T02:07:25.515Z,100.00
2023-02-20T02:09:57.666Z,100.00
2023-02-20T02:12:33.446Z,100.00
2023-02-20T02:15:04.399Z,100.00
2023-02-20T02:18:11.430Z,100.00
2023-02-20T02:21:11.406Z,100.00
2023-02-20T02:24:16.223Z,100.00
2023-02-20T02:27:33.288Z,100.00
2023-02-20T02:30:44.481Z,100.00
2023-02-20T02:33:49.214Z,100.00
2023-02-20T02:36:40.841Z,100.00
2023-02-20T02:39:23.005Z,100.00
2023-02-20T02:41:58.600Z,100.00
2023-02-20T02:44:34.775Z,100.00
2023-02-20T02:47:07.706Z,100.00
2023-02-20T02:49:42.841Z,100.00
2023-02-20T02:52:34.337Z,100.00
2023-02-20T02:55:04.465Z,100.00
2023-02-20T02:57:34.389Z,100.00
2023-02-20T03:00:08.189Z,100.00
2023-02-20T03:02:43.437Z,100.00
2023-02-20T03:05:20.380Z,100.00
2023-02-20T03:07:55.399Z,100.00
2023-02-20T03:10:31.997Z,100.00
2023-02-20T03:13:06.224Z,100.00
2023-02-20T03:15:39.831Z,100.00
2023-02-20T03:18:20.445Z,100.00
2023-02-20T03:20:53.877Z,100.00
2023-02-20T03:23:27.823Z,100.00
2023-02-20T03:26:01.029Z,100.00
2023-02-20T03:28:36.658Z,100.00
2023-02-20T03:31:10.691Z,100.00
2023-02-20T03:34:04.735Z,100.00
2023-02-20T03:36:56.261Z,100.00
2023-02-20T03:39:51.093Z,100.00
2023-02-20T03:42:40.300Z,100.00
2023-02-20T03:45:23.439Z,100.00
2023-02-20T03:47:56.484Z,100.00
2023-02-20T03:50:37.769Z,100.00
2023-02-20T03:53:07.229Z,100.00
2023-02-20T03:55:38.545Z,100.00
2023-02-20T03:58:13.503Z,100.00
2023-02-20T04:00:47.080Z,100.00
2023-02-20T04:03:19.980Z,100.00
2023-02-20T04:05:56.635Z,100.00
2023-02-20T04:08:37.673Z,100.00
2023-02-20T04:11:11.886Z,100.00
2023-02-20T04:13:41.946Z,100.00
2023-02-20T04:16:12.751Z,100.00
2023-02-20T04:18:42.965Z,100.00
2023-02-20T04:21:21.650Z,100.00
2023-02-20T04:24:00.525Z,100.00
2023-02-20T04:26:31.574Z,100.00
2023-02-20T04:29:00.726Z,100.00
2023-02-20T04:31:29.932Z,100.00
2023-02-20T04:33:59.170Z,100.00
2023-02-20T04:36:29.024Z,100.00
2023-02-20T04:39:00.700Z,100.00
2023-02-20T04:41:35.162Z,100.00
2023-02-20T04:44:21.846Z,100.00
2023-02-20T04:46:52.670Z,100.00
2023-02-20T04:49:23.018Z,100.00
2023-02-20T04:51:55.541Z,100.00
2023-02-20T04:54:24.882Z,100.00
2023-02-20T04:56:55.515Z,100.00
2023-02-20T04:59:25.647Z,100.00
2023-02-20T05:01:56.581Z,100.00
2023-02-20T05:04:25.717Z,100.00
2023-02-20T05:06:58.068Z,100.00
2023-02-20T05:09:27.280Z,100.00
2023-02-20T05:11:58.037Z,100.00
2023-02-20T05:14:27.040Z,100.00
2023-02-20T05:16:56.283Z,100.00
2023-02-20T05:19:25.304Z,100.00
2023-02-20T05:22:11.715Z,100.00
2023-02-20T05:24:40.869Z,100.00
2023-02-20T05:27:11.642Z,100.00
2023-02-20T05:29:40.814Z,100.00
2023-02-20T05:32:09.883Z,100.00
2023-02-20T05:34:38.896Z,100.00
2023-02-20T05:37:07.927Z,100.00
2023-02-20T05:39:37.041Z,100.00
2023-02-20T05:42:07.300Z,100.00
2023-02-20T05:44:37.991Z,100.00
2023-02-20T05:47:07.892Z,100.00
2023-02-20T05:49:37.474Z,100.00
2023-02-20T05:52:11.867Z,100.00
2023-02-20T05:54:41.994Z,100.00
2023-02-20T05:57:13.911Z,100.00
2023-02-20T05:59:44.365Z,100.00
2023-02-20T06:02:13.407Z,100.00
2023-02-20T06:04:42.512Z,100.00
2023-02-20T06:07:11.685Z,100.00
2023-02-20T06:09:44.542Z,100.00
2023-02-20T06:12:16.784Z,100.00
2023-02-20T06:14:47.193Z,100.00
2023-02-20T06:17:16.332Z,100.00
2023-02-20T06:19:45.466Z,100.00
2023-02-20T06:22:14.573Z,100.00
2023-02-20T06:24:47.010Z,100.00
2023-02-20T06:27:16.588Z,100.00
2023-02-20T06:29:49.026Z,100.00
2023-02-20T06:32:18.398Z,100.00
2023-02-20T06:34:47.906Z,100.00
2023-02-20T06:37:17.137Z,100.00
2023-02-20T06:39:48.354Z,100.00
2023-02-20T06:42:17.453Z,100.00
2023-02-20T06:44:48.057Z,100.00
2023-02-20T06:48:11.261Z,100.00
2023-02-20T06:51:52.300Z,100.00
2023-02-20T06:54:50.048Z,100.00
2023-02-20T06:57:51.761Z,100.00
2023-02-20T07:00:22.901Z,92.84
2023-02-20T07:02:52.191Z,89.59
2023-02-20T07:05:21.662Z,89.56
2023-02-20T07:07:50.768Z,85.34
2023-02-20T07:10:20.036Z,81.51
2023-02-20T07:12:49.241Z,85.48
2023-02-20T07:15:19.727Z,83.42
2023-02-20T07:17:50.484Z,83.11
2023-02-20T07:20:19.980Z,83.79
2023-02-20T07:22:52.769Z,82.29
2023-02-20T07:25:21.810Z,83.57
2023-02-20T07:27:51.466Z,82.72
2023-02-20T07:30:20.810Z,80.97
2023-02-20T07:32:51.252Z,82.58
2023-02-20T07:35:20.406Z,82.62
2023-02-20T07:37:49.649Z,81.44
2023-02-20T07:40:18.987Z,78.23
2023-02-20T07:42:48.013Z,77.51
2023-02-20T07:45:24.275Z,75.18
2023-02-20T07:47:54.970Z,70.78
2023-02-20T07:50:24.014Z,69.41
2023-02-20T07:52:53.140Z,67.23
2023-02-20T07:55:22.329Z,66.31
2023-02-20T07:57:52.241Z,66.44
2023-02-20T08:00:22.118Z,66.03
2023-02-20T08:02:51.583Z,64.47
2023-02-20T08:05:22.466Z,64.25
2023-02-20T08:07:52.309Z,62.89
2023-02-20T08:10:24.620Z,61.30
2023-02-20T08:12:55.430Z,61.71
2023-02-20T08:15:24.891Z,58.42
2023-02-20T08:17:55.399Z,59.75
2023-02-20T08:20:25.906Z,57.79
2023-02-20T08:22:55.138Z,57.70
2023-02-20T08:25:24.435Z,57.64
2023-02-20T08:27:53.637Z,57.59
2023-02-20T08:30:26.051Z,55.45
2023-02-20T08:32:55.954Z,55.45
2023-02-20T08:35:26.558Z,55.68
2023-02-20T08:37:55.668Z,54.52
2023-02-20T08:40:24.821Z,52.61
2023-02-20T08:42:53.922Z,53.23
2023-02-20T08:45:22.922Z,52.79
2023-02-20T08:47:52.441Z,53.22
2023-02-20T08:50:21.956Z,51.60
2023-02-20T08:52:52.516Z,51.75
2023-02-20T08:55:21.632Z,51.67
2023-02-20T08:57:50.890Z,50.23
2023-02-20T09:00:20.598Z,51.98
2023-02-20T09:02:50.086Z,51.48
2023-02-20T09:05:19.432Z,51.17
2023-02-20T09:07:48.599Z,50.18
2023-02-20T09:10:20.150Z,50.79
2023-02-20T09:12:49.691Z,50.71
2023-02-20T09:15:21.661Z,51.19
2023-02-20T09:17:51.624Z,50.19
2023-02-20T09:20:23.620Z,50.85
2023-02-20T09:22:53.201Z,50.87
2023-02-20T09:25:24.068Z,51.71
2023-02-20T09:27:53.168Z,50.22
2023-02-20T09:30:23.261Z,51.09
2023-02-20T09:32:52.823Z,51.05
2023-02-20T09:35:25.312Z,49.54
2023-02-20T09:37:54.904Z,49.92
2023-02-20T09:40:27.378Z,49.88
2023-02-20T09:43:16.090Z,48.42
2023-02-20T09:45:51.821Z,47.84
2023-02-20T09:48:32.828Z,48.60
2023-02-20T09:51:05.344Z,47.91
2023-02-20T09:53:40.934Z,48.00
2023-02-20T09:56:16.253Z,48.53
2023-02-20T09:58:47.490Z,47.52
2023-02-20T10:01:20.042Z,45.41
2023-02-20T10:03:57.205Z,47.09
2023-02-20T10:06:29.566Z,46.38
2023-02-20T10:08:59.157Z,46.89
2023-02-20T10:11:47.826Z,46.38
2023-02-20T10:14:39.217Z,45.77
2023-02-20T10:17:21.355Z,43.79
2023-02-20T10:19:56.214Z,45.17
2023-02-20T10:22:34.333Z,45.10
2023-02-20T10:25:13.269Z,44.00
2023-02-20T10:27:55.135Z,43.89
2023-02-20T10:30:32.876Z,42.95
2023-02-20T10:33:13.735Z,42.84
2023-02-20T10:35:47.756Z,42.28
2023-02-20T10:38:22.712Z,42.36
2023-02-20T10:40:59.234Z,42.56
2023-02-20T10:43:36.777Z,42.41
2023-02-20T10:46:12.914Z,42.67
2023-02-20T10:48:45.590Z,41.81
2023-02-20T10:51:20.281Z,41.80
2023-02-20T10:53:54.239Z,42.28
2023-02-20T10:56:29.406Z,42.25
2023-02-20T10:59:05.804Z,41.77
2023-02-20T11:01:36.926Z,41.86
2023-02-20T11:04:12.338Z,41.75
2023-02-20T11:06:46.486Z,41.44
2023-02-20T11:09:15.984Z,41.52
2023-02-20T11:11:46.952Z,41.92
2023-02-20T11:14:37.782Z,41.37
2023-02-20T11:17:15.619Z,42.00
2023-02-20T11:19:46.415Z,42.09
2023-02-20T11:22:17.548Z,41.52
2023-02-20T11:24:47.330Z,40.54
2023-02-20T11:27:18.673Z,40.96
2023-02-20T11:29:56.525Z,41.21
2023-02-20T11:32:37.711Z,39.52
2023-02-20T11:35:26.905Z,40.40
2023-02-20T11:38:31.582Z,39.70
2023-02-20T11:41:27.300Z,40.23
2023-02-20T11:44:19.981Z,40.18
2023-02-20T11:47:11.577Z,38.98
2023-02-20T11:49:40.801Z,39.47
2023-02-20T11:52:11.617Z,39.66
2023-02-20T11:54:40.817Z,39.87
2023-02-20T11:57:23.623Z,40.33
2023-02-20T11:59:53.845Z,39.45
2023-02-20T12:02:29.866Z,39.82
2023-02-20T12:05:13.820Z,40.00
2023-02-20T12:07:46.171Z,40.17
2023-02-20T12:10:31.987Z,40.36
2023-02-20T12:13:01.409Z,40.21
2023-02-20T12:15:31.139Z,40.35
2023-02-20T12:18:27.839Z,40.40
2023-02-20T12:21:05.506Z,40.58
2023-02-20T12:23:45.707Z,40.63
2023-02-20T12:26:28.272Z,41.12
2023-02-20T12:29:11.374Z,41.48
2023-02-20T12:31:53.038Z,40.16
2023-02-20T12:34:40.333Z,40.95
2023-02-20T12:37:21.160Z,41.22
2023-02-20T12:40:02.897Z,40.75
2023-02-20T12:42:44.805Z,42.02
2023-02-20T12:45:27.189Z,41.23
2023-02-20T12:48:11.923Z,42.58
2023-02-20T12:50:51.732Z,42.17
2023-02-20T12:53:41.746Z,41.06
2023-02-20T12:56:25.975Z,40.80
2023-02-20T12:59:01.208Z,41.27
2023-02-20T13:01:39.091Z,41.70
2023-02-20T13:04:24.892Z,42.07
2023-02-20T13:07:04.226Z,42.90
2023-02-20T13:09:37.370Z,42.85
2023-02-20T13:12:12.431Z,42.52
2023-02-20T13:14:56.980Z,43.12
2023-02-20T13:17:37.106Z,44.81
2023-02-20T13:20:17.430Z,43.82
2023-02-20T13:23:00.798Z,44.57
2023-02-20T13:25:42.085Z,44.48
2023-02-20T13:28:45.884Z,44.44
2023-02-20T13:31:16.440Z,45.08
2023-02-20T13:33:47.178Z,45.00
2023-02-20T13:36:43.014Z,45.27
2023-02-20T13:39:39.590Z,45.56
2023-02-20T13:42:43.861Z,45.88
2023-02-20T13:45:38.827Z,47.74
2023-02-20T13:48:36.068Z,47.41
2023-02-20T13:51:41.396Z,47.79
2023-02-20T13:54:29.263Z,47.33
2023-02-20T13:57:05.264Z,47.25
2023-02-20T13:59:37.777Z,47.21
2023-02-20T14:02:17.810Z,47.62
2023-02-20T14:04:57.931Z,48.69
2023-02-20T14:07:38.163Z,48.93
2023-02-20T14:10:11.579Z,49.38
2023-02-20T14:12:43.522Z,48.65
2023-02-20T14:15:12.725Z,48.11
2023-02-20T14:17:44.362Z,48.45
2023-02-20T14:20:24.849Z,48.27
2023-02-20T14:23:21.840Z,48.10
2023-02-20T14:26:12.811Z,47.99
2023-02-20T14:28:47.994Z,48.15
2023-02-20T14:31:28.547Z,48.53
2023-02-20T14:33:59.758Z,48.95
2023-02-20T14:36:40.214Z,50.56
2023-02-20T14:39:21.076Z,50.44
2023-02-20T14:41:55.439Z,49.62
2023-02-20T15:04:10.778Z,49.96
2023-02-20T15:06:41.743Z,51.62
2023-02-20T15:09:21.997Z,52.71
2023-02-20T15:11:57.602Z,53.72
2023-02-20T15:14:29.927Z,54.29
2023-02-20T15:17:10.031Z,54.64
2023-02-20T15:19:43.118Z,56.02
2023-02-20T15:22:28.729Z,55.86
2023-02-20T15:25:29.093Z,56.01
2023-02-20T15:28:11.359Z,56.00
2023-02-20T15:31:01.899Z,57.01
2023-02-20T15:33:32.854Z,57.27
2023-02-20T15:36:04.020Z,57.63
2023-02-20T15:38:34.942Z,57.84
2023-02-20T15:41:06.163Z,58.07
2023-02-20T15:43:46.207Z,59.97
2023-02-20T15:46:17.246Z,58.98
2023-02-20T15:48:46.644Z,58.94
2023-02-20T15:51:20.699Z,60.30
2023-02-20T15:53:50.519Z,59.96
2023-02-20T15:56:20.786Z,61.63
2023-02-20T15:58:50.892Z,61.98
2023-02-20T16:01:20.155Z,61.94
2023-02-20T16:03:52.644Z,62.28
2023-02-20T16:06:25.320Z,62.86
2023-02-20T16:08:55.169Z,63.40
2023-02-20T16:11:26.860Z,63.36
2023-02-20T16:13:59.367Z,64.46
2023-02-20T16:16:34.569Z,64.91
2023-02-20T16:19:04.522Z,64.51
2023-02-20T16:21:35.099Z,64.78
2023-02-20T16:24:04.662Z,65.23
2023-02-20T16:26:36.372Z,64.94
2023-02-20T16:29:10.357Z,65.44
2023-02-20T16:32:19.345Z,65.71
2023-02-20T16:34:49.039Z,66.55
2023-02-20T16:37:20.639Z,66.94
2023-02-20T16:39:50.123Z,66.47
2023-02-20T16:42:27.436Z,66.55
2023-02-20T16:44:58.967Z,66.85
2023-02-20T16:47:31.373Z,66.87
2023-02-20T16:50:01.953Z,67.07
2023-02-20T16:52:36.496Z,66.58
2023-02-20T16:55:06.829Z,67.48
2023-02-20T16:57:36.014Z,67.57
2023-02-20T17:00:06.825Z,67.96
2023-02-20T17:02:36.180Z,68.16
2023-02-20T17:05:05.548Z,69.29
2023-02-20T17:07:37.238Z,69.46
2023-02-20T17:10:07.202Z,69.48
2023-02-20T17:12:37.309Z,70.22
2023-02-20T17:15:09.186Z,69.92
2023-02-20T17:17:39.003Z,70.80
2023-02-20T17:20:10.149Z,72.23
2023-02-20T17:22:42.927Z,72.79
2023-02-20T17:25:17.225Z,72.45
2023-02-20T17:27:46.828Z,72.03
2023-02-20T17:30:18.065Z,72.52
2023-02-20T17:32:47.728Z,71.81
2023-02-20T17:35:17.747Z,73.54
2023-02-20T17:37:48.275Z,75.48
2023-02-20T17:40:18.380Z,76.02
2023-02-20T17:42:47.518Z,74.99
2023-02-20T17:45:17.381Z,75.23
2023-02-20T17:47:47.618Z,76.46
2023-02-20T17:50:19.387Z,77.05
2023-02-20T17:52:50.636Z,77.33
2023-02-20T17:55:21.698Z,76.50
2023-02-20T17:57:51.408Z,77.09
2023-02-20T18:00:22.475Z,78.12
2023-02-20T18:02:52.090Z,78.74
2023-02-20T18:05:21.301Z,79.41
2023-02-20T18:07:52.088Z,79.52
2023-02-20T18:10:21.926Z,80.26
2023-02-20T18:13:03.029Z,80.94
2023-02-20T18:15:32.546Z,81.23
2023-02-20T18:18:02.181Z,82.33
2023-02-20T18:20:32.010Z,85.41
2023-02-20T18:23:02.856Z,88.04
2023-02-20T18:25:40.477Z,90.09
2023-02-20T18:28:10.217Z,91.78
2023-02-20T18:30:41.321Z,93.18
2023-02-20T18:33:10.611Z,94.26
2023-02-20T18:35:39.995Z,95.06
2023-02-20T18:38:10.493Z,94.83
2023-02-20T18:40:39.597Z,95.73
2023-02-20T18:43:08.979Z,96.67
2023-02-20T18:45:38.278Z,96.62
2023-02-20T18:48:08.219Z,98.39
2023-02-20T18:50:37.470Z,97.38
2023-02-20T18:53:06.676Z,97.95
2023-02-20T18:55:38.690Z,98.83
2023-02-20T18:58:07.924Z,99.49
2023-02-20T19:00:39.178Z,100.00
2023-02-20T19:03:08.915Z,100.00
2023-02-20T19:05:38.129Z,100.00
2023-02-20T19:08:07.854Z,100.00
2023-02-20T19:10:38.496Z,100.00
2023-02-20T19:13:07.674Z,100.00
2023-02-20T19:15:36.774Z,100.00
2023-02-20T19:18:06.266Z,100.00
2023-02-20T19:20:35.677Z,100.00
2023-02-20T19:23:05.052Z,100.00
2023-02-20T19:25:34.369Z,100.00
2023-02-20T19:28:06.344Z,100.00
2023-02-20T19:30:35.443Z,100.00
2023-02-20T19:33:04.723Z,100.00
2023-02-20T19:35:33.922Z,100.00
2023-02-20T19:38:03.254Z,100.00
2023-02-20T19:40:32.242Z,100.00
2023-02-20T19:43:01.470Z,100.00
2023-02-20T19:45:32.292Z,100.00
2023-02-20T19:48:01.676Z,100.00
2023-02-20T19:50:31.253Z,100.00
2023-02-20T19:53:01.296Z,100.00
2023-02-20T19:55:31.929Z,100.00
2023-02-20T19:58:01.335Z,100.00
2023-02-20T20:00:32.086Z,100.00
2023-02-20T20:03:01.260Z,100.00
2023-02-20T20:05:30.352Z,100.00
2023-02-20T20:07:59.471Z,100.00
2023-02-20T20:10:31.732Z,100.00
2023-02-20T20:13:00.948Z,100.00
2023-02-20T20:15:32.445Z,100.00
2023-02-20T20:18:03.413Z,100.00
2023-02-20T20:20:36.005Z,100.00
2023-02-20T20:23:07.391Z,100.00
2023-02-20T20:25:36.978Z,100.00
2023-02-20T20:28:09.444Z,100.00
2023-02-20T20:30:40.576Z,100.00
2023-02-20T20:33:10.488Z,100.00
2023-02-20T20:35:39.674Z,100.00
2023-02-20T20:38:09.448Z,100.00
2023-02-20T20:40:38.487Z,100.00
2023-02-20T20:43:08.118Z,100.00
2023-02-20T20:45:37.281Z,100.00
2023-02-20T20:48:07.962Z,100.00
2023-02-20T20:50:37.129Z,100.00
2023-02-20T20:53:06.426Z,100.00
2023-02-20T20:55:35.500Z,100.00
2023-02-20T20:58:04.879Z,100.00
2023-02-20T21:00:35.557Z,100.00
2023-02-20T21:03:05.672Z,100.00
2023-02-20T21:05:36.344Z,100.00
2023-02-20T21:08:07.388Z,100.00
2023-02-20T21:10:37.619Z,100.00
2023-02-20T21:13:06.796Z,100.00
2023-02-20T21:15:36.330Z,100.00
2023-02-20T21:18:05.993Z,100.00
2023-02-20T21:20:36.724Z,100.00
2023-02-20T21:23:06.925Z,100.00
2023-02-20T21:25:35.989Z,100.00
2023-02-20T21:28:05.313Z,100.00
2023-02-20T21:30:34.510Z,100.00
2023-02-20T21:33:03.621Z,100.00
2023-02-20T21:35:32.957Z,100.00
2023-02-20T21:38:03.449Z,100.00
2023-02-20T21:40:32.640Z,100.00
2023-02-20T21:43:18.939Z,100.00
2023-02-20T21:45:50.132Z,100.00
2023-02-20T21:48:19.269Z,100.00
2023-02-20T21:50:48.558Z,100.00
2023-02-20T21:53:19.286Z,100.00
2023-02-20T21:55:48.528Z,100.00
2023-02-20T21:58:18.107Z,100.00
2023-02-20T22:00:46.292Z,100.00
2023-02-20T22:03:14.019Z,100.00
2023-02-20T22:05:42.067Z,100.00
2023-02-20T22:08:28.302Z,100.00
2023-02-20T22:11:16.517Z,100.00
2023-02-20T22:14:02.707Z,100.00
2023-02-20T22:16:49.070Z,100.00
2023-02-20T22:19:35.324Z,100.00
2023-02-20T22:22:21.557Z,100.00
2023-02-20T22:25:07.768Z,100.00
2023-02-20T22:27:55.487Z,100.00
2023-02-20T22:30:41.901Z,100.00
2023-02-20T22:33:28.267Z,100.00
2023-02-20T22:36:14.932Z,100.00
2023-02-20T22:39:01.136Z,100.00
2023-02-20T22:41:47.533Z,100.00
2023-02-20T22:44:35.258Z,100.00
2023-02-20T22:47:21.624Z,100.00
2023-02-20T22:50:07.940Z,100.00
2023-02-20T22:52:54.391Z,100.00
2023-02-20T22:55:40.640Z,100.00
2023-02-20T22:58:26.710Z,100.00
2023-02-20T23:01:14.971Z,100.00
2023-02-20T23:04:01.925Z,100.00
2023-02-20T23:06:48.242Z,100.00
2023-02-20T23:09:34.558Z,100.00
2023-02-20T23:12:20.922Z,100.00
2023-02-20T23:15:07.336Z,100.00
2023-02-20T23:17:55.935Z,100.00
2023-02-20T23:20:42.802Z,100.00
2023-02-20T23:23:30.567Z,100.00
2023-02-20T23:26:16.905Z,100.00
2023-02-20T23:29:03.571Z,100.00
2023-02-20T23:31:51.535Z,100.00
2023-02-20T23:34:39.352Z,100.00
2023-02-20T23:37:25.539Z,100.00
2023-02-20T23:40:12.347Z,100.00
2023-02-20T23:42:59.293Z,100.00
2023-02-20T23:45:46.154Z,100.00
2023-02-20T23:48:33.356Z,100.00
2023-02-20T23:51:21.397Z,100.00
2023-02-20T23:54:07.870Z,100.00
2023-02-20T23:56:54.081Z,100.00
2023-02-20T23:59:40.380Z,100.00
